Sara — WDI5167 — position and weather

sailwx.info

Track history (hours):
 
Tides and Currents Weather Stations Pressure Air Temp Water Temp Dewpoint Dewpoint Depression Visibility Wind Speed Wind Dir Waves Ship Positions

Sara

Owner: Miami River Towing Company Inc., Miami, FL. More information available from US FCC via Universal Licensing System and Coast Guard Vessel Documentation Center.

Last reported at 2018-Jan-22 15:04 UTC. Time now 2018-Jan-22 15:49 UTC.
Position N 25°48' W 080°15'.

Length 16 m; draft 2 m.

Type: Towing. MMSI: 367705810.

Date/timePositionNaut miles runAvg speedWind from/ knotsBaromVisibWave heightAir tempDewpointWater temp
2018-Jan-22 15:04N 25°48' W 080°15'0 1.2
2018-Jan-22 15:01N 25°48' W 080°15'1 1.3
2018-Jan-22 14:30N 25°48' W 080°14'1 2.6
2018-Jan-22 14:01N 25°47' W 080°13'1 2.8
2018-Jan-22 13:30N 25°46' W 080°12'1 2.8
2018-Jan-22 13:00N 25°46' W 080°10'1 2.0
2018-Jan-22 12:30N 25°46' W 080°11'3 5.7
2018-Jan-22 12:00N 25°47' W 080°14'1 1.7
2018-Jan-22 11:30N 25°48' W 080°15'0 0.0
2018-Jan-20 20:31N 25°48' W 080°15'0 1.6
2018-Jan-20 20:30N 25°48' W 080°15'3 5.8
2018-Jan-20 20:00N 25°47' W 080°12'1 2.3
2018-Jan-20 19:30N 25°46' W 080°11'1 2.5
2018-Jan-20 19:00N 25°47' W 080°12'2 3.3
2018-Jan-20 18:30N 25°47' W 080°14'1 1.7
2018-Jan-20 18:00N 25°48' W 080°15'2 4.1
2018-Jan-20 17:30N 25°47' W 080°13'2 3.7
2018-Jan-20 17:00N 25°46' W 080°11'1 2.2
2018-Jan-20 16:30N 25°46' W 080°12'1 2.8
2018-Jan-20 16:00N 25°47' W 080°13'1 2.5
2018-Jan-20 15:30N 25°48' W 080°15'0 0.7
2018-Jan-20 15:00N 25°48' W 080°15'0 0.2
2018-Jan-20 14:30N 25°48' W 080°15'0 0.7
2018-Jan-20 14:00N 25°48' W 080°15'0 0.0
2018-Jan-20 13:30N 25°48' W 080°15'0 0.0
2018-Jan-19 19:17N 25°48' W 080°15'1 5.3
2018-Jan-19 19:00N 25°47' W 080°14'2 4.9
2018-Jan-19 18:30N 25°46' W 080°11'1 1.1
2018-Jan-19 18:00N 25°46' W 080°12'1 2.9
2018-Jan-19 17:31N 25°47' W 080°13'1 2.8
2018-Jan-19 17:00N 25°48' W 080°14'0 0.8
2018-Jan-19 16:30N 25°48' W 080°15'0 0.2
2018-Jan-19 16:00N 25°48' W 080°15'1 2.2
2018-Jan-19 15:31N 25°47' W 080°14'2 3.2
2018-Jan-19 15:01N 25°46' W 080°12'1 2.7
2018-Jan-19 14:30N 25°46' W 080°11'2 3.5
2018-Jan-19 14:01N 25°47' W 080°12'2 4.6
2018-Jan-19 13:31N 25°48' W 080°15'1 1.7
2018-Jan-19 13:00N 25°47' W 080°14'1 2.7
2018-Jan-19 12:30N 25°47' W 080°13'1 2.4
2018-Jan-19 12:00N 25°46' W 080°11'1 2.3
2018-Jan-19 11:31N 25°46' W 080°10'3 5.2
2018-Jan-19 11:00N 25°47' W 080°13'2 4.4
2018-Jan-19 10:30N 25°48' W 080°15'0 0.0
2018-Jan-19 10:01N 25°48' W 080°15'0 0.0
2018-Jan-18 07:09N 25°48' W 080°15'1 3.5
2018-Jan-18 07:00N 25°48' W 080°15'3 5.5
2018-Jan-18 06:30N 25°46' W 080°12'1 1.5
2018-Jan-18 06:01N 25°46' W 080°11'1 2.5
2018-Jan-18 05:31N 25°47' W 080°12'2 3.1
2018-Jan-18 05:00N 25°47' W 080°14'1 1.8
2018-Jan-18 04:31N 25°48' W 080°15'0 0.5
2018-Jan-18 04:00N 25°48' W 080°15'1 2.4
2018-Jan-18 03:30N 25°47' W 080°13'1 1.1
2018-Jan-18 03:00N 25°47' W 080°13'1 2.8
2018-Jan-18 02:31N 25°46' W 080°12'1 2.8
2018-Jan-18 02:01N 25°46' W 080°10'1 1.8
2018-Jan-18 01:30N 25°46' W 080°11'3 5.8
2018-Jan-18 01:00N 25°47' W 080°14'1 1.1
2018-Jan-18 00:00N 25°48' W 080°15'0 0.0
2018-Jan-17 23:57N 25°48' W 080°15'  
Track history (hours):
 
Tides and Currents Weather Stations Pressure Air Temp Water Temp Dewpoint Dewpoint Depression Visibility Wind Speed Wind Dir Waves Ship Positions

Sara

Owner: Miami River Towing Company Inc., Miami, FL. More information available from US FCC via Universal Licensing System and Coast Guard Vessel Documentation Center.

Last reported at 2018-Jan-22 15:04 UTC. Time now 2018-Jan-22 15:49 UTC.
Position N 25°48' W 080°15'.

Length 16 m; draft 2 m.

Type: Towing. MMSI: 367705810.

Date/timePositionNaut miles runAvg speedWind from/ knotsBaromVisibWave heightAir tempDewpointWater temp
2018-Jan-22 15:04N 25°48' W 080°15'0 1.2
2018-Jan-22 15:01N 25°48' W 080°15'1 1.3
2018-Jan-22 14:30N 25°48' W 080°14'1 2.6
2018-Jan-22 14:01N 25°47' W 080°13'1 2.8
2018-Jan-22 13:30N 25°46' W 080°12'1 2.8
2018-Jan-22 13:00N 25°46' W 080°10'1 2.0
2018-Jan-22 12:30N 25°46' W 080°11'3 5.7
2018-Jan-22 12:00N 25°47' W 080°14'1 1.7
2018-Jan-22 11:30N 25°48' W 080°15'0 0.0
2018-Jan-20 20:31N 25°48' W 080°15'0 1.6
2018-Jan-20 20:30N 25°48' W 080°15'3 5.8
2018-Jan-20 20:00N 25°47' W 080°12'1 2.3
2018-Jan-20 19:30N 25°46' W 080°11'1 2.5
2018-Jan-20 19:00N 25°47' W 080°12'2 3.3
2018-Jan-20 18:30N 25°47' W 080°14'1 1.7
2018-Jan-20 18:00N 25°48' W 080°15'2 4.1
2018-Jan-20 17:30N 25°47' W 080°13'2 3.7
2018-Jan-20 17:00N 25°46' W 080°11'1 2.2
2018-Jan-20 16:30N 25°46' W 080°12'1 2.8
2018-Jan-20 16:00N 25°47' W 080°13'1 2.5
2018-Jan-20 15:30N 25°48' W 080°15'0 0.7
2018-Jan-20 15:00N 25°48' W 080°15'0 0.2
2018-Jan-20 14:30N 25°48' W 080°15'0 0.7
2018-Jan-20 14:00N 25°48' W 080°15'0 0.0
2018-Jan-20 13:30N 25°48' W 080°15'0 0.0
2018-Jan-19 19:17N 25°48' W 080°15'1 5.3
2018-Jan-19 19:00N 25°47' W 080°14'2 4.9
2018-Jan-19 18:30N 25°46' W 080°11'1 1.1
2018-Jan-19 18:00N 25°46' W 080°12'1 2.9
2018-Jan-19 17:31N 25°47' W 080°13'1 2.8
2018-Jan-19 17:00N 25°48' W 080°14'0 0.8
2018-Jan-19 16:30N 25°48' W 080°15'0 0.2
2018-Jan-19 16:00N 25°48' W 080°15'1 2.2
2018-Jan-19 15:31N 25°47' W 080°14'2 3.2
2018-Jan-19 15:01N 25°46' W 080°12'1 2.7
2018-Jan-19 14:30N 25°46' W 080°11'2 3.5
2018-Jan-19 14:01N 25°47' W 080°12'2 4.6
2018-Jan-19 13:31N 25°48' W 080°15'1 1.7
2018-Jan-19 13:00N 25°47' W 080°14'1 2.7
2018-Jan-19 12:30N 25°47' W 080°13'1 2.4
2018-Jan-19 12:00N 25°46' W 080°11'1 2.3
2018-Jan-19 11:31N 25°46' W 080°10'3 5.2
2018-Jan-19 11:00N 25°47' W 080°13'2 4.4
2018-Jan-19 10:30N 25°48' W 080°15'0 0.0
2018-Jan-19 10:01N 25°48' W 080°15'0 0.0
2018-Jan-18 07:09N 25°48' W 080°15'1 3.5
2018-Jan-18 07:00N 25°48' W 080°15'3 5.5
2018-Jan-18 06:30N 25°46' W 080°12'1 1.5
2018-Jan-18 06:01N 25°46' W 080°11'1 2.5
2018-Jan-18 05:31N 25°47' W 080°12'2 3.1
2018-Jan-18 05:00N 25°47' W 080°14'1 1.8
2018-Jan-18 04:31N 25°48' W 080°15'0 0.5
2018-Jan-18 04:00N 25°48' W 080°15'1 2.4
2018-Jan-18 03:30N 25°47' W 080°13'1 1.1
2018-Jan-18 03:00N 25°47' W 080°13'1 2.8
2018-Jan-18 02:31N 25°46' W 080°12'1 2.8
2018-Jan-18 02:01N 25°46' W 080°10'1 1.8
2018-Jan-18 01:30N 25°46' W 080°11'3 5.8
2018-Jan-18 01:00N 25°47' W 080°14'1 1.1
2018-Jan-18 00:00N 25°48' W 080°15'0 0.0
2018-Jan-17 23:57N 25°48' W 080°15'  

Dump ship's entire track history